createdAt,value
2018-04-01T00:01:26.067Z,7.00
2018-04-01T00:03:53.874Z,7.00
2018-04-01T00:06:23.180Z,7.00
2018-04-01T00:08:51.724Z,7.10
2018-04-01T00:11:21.011Z,7.10
2018-04-01T00:13:48.793Z,7.10
2018-04-01T00:16:16.587Z,7.00
2018-04-01T00:18:45.142Z,7.10
2018-04-01T00:21:12.916Z,7.10
2018-04-01T00:23:41.477Z,7.20
2018-04-01T00:26:09.264Z,7.10
2018-04-01T00:28:37.822Z,7.20
2018-04-01T00:31:05.593Z,7.20
2018-04-01T00:33:33.376Z,7.20
2018-04-01T00:36:01.168Z,7.10
2018-04-01T00:38:28.948Z,7.00
2018-04-01T00:40:56.730Z,7.00
2018-04-01T00:43:24.557Z,6.90
2018-04-01T00:45:52.349Z,6.80
2018-04-01T00:48:20.171Z,6.80
2018-04-01T00:50:47.943Z,6.90
2018-04-01T00:53:16.500Z,7.00
2018-04-01T00:55:44.279Z,7.00
2018-04-01T00:58:12.055Z,7.10
2018-04-01T01:00:40.607Z,7.00
2018-04-01T01:03:08.375Z,7.00
2018-04-01T01:05:36.158Z,7.10
2018-04-01T01:08:04.704Z,7.00
2018-04-01T01:10:32.525Z,7.00
2018-04-01T01:13:00.308Z,7.10
2018-04-01T01:15:28.095Z,7.10
2018-04-01T01:17:55.871Z,7.10
2018-04-01T01:20:23.643Z,7.10
2018-04-01T01:22:51.429Z,7.00
2018-04-01T01:25:19.987Z,6.90
2018-04-01T01:27:47.808Z,6.90
2018-04-01T01:30:15.605Z,6.90
2018-04-01T01:32:43.387Z,6.90
2018-04-01T01:35:11.179Z,6.90
2018-04-01T01:37:39.737Z,7.00
2018-04-01T01:40:07.504Z,7.00
2018-04-01T01:42:35.290Z,7.00
2018-04-01T01:45:03.859Z,6.90
2018-04-01T01:47:33.150Z,6.90
2018-04-01T01:50:00.952Z,6.80
2018-04-01T01:52:29.489Z,6.80
2018-04-01T01:54:57.264Z,6.80
2018-04-01T01:57:25.060Z,6.70
2018-04-01T01:59:52.856Z,6.70
2018-04-01T02:02:20.670Z,6.70
2018-04-01T02:04:48.452Z,6.60
2018-04-01T02:07:17.002Z,6.50
2018-04-01T02:09:44.790Z,6.50
2018-04-01T02:12:13.331Z,6.50
2018-04-01T02:14:41.117Z,6.50
2018-04-01T02:17:08.888Z,6.40
2018-04-01T02:19:36.667Z,6.40
2018-04-01T02:22:05.207Z,6.40
2018-04-01T02:24:33.005Z,6.30
2018-04-01T02:27:02.296Z,6.30
2018-04-01T02:29:30.856Z,6.30
2018-04-01T02:31:58.650Z,6.30
2018-04-01T02:34:26.424Z,6.30
2018-04-01T02:36:54.960Z,6.20
2018-04-01T02:39:22.730Z,6.20
2018-04-01T02:41:50.541Z,6.20
2018-04-01T02:44:18.326Z,6.20
2018-04-01T02:46:46.102Z,6.10
2018-04-01T02:49:13.874Z,6.00
2018-04-01T02:51:41.657Z,5.90
2018-04-01T02:54:09.434Z,5.80
2018-04-01T02:56:38.719Z,5.60
2018-04-01T02:59:06.510Z,5.60
2018-04-01T03:01:34.279Z,5.60
2018-04-01T03:04:02.057Z,5.60
2018-04-01T03:06:30.614Z,5.50
2018-04-01T03:08:58.384Z,5.40
2018-04-01T03:11:26.164Z,5.40
2018-04-01T03:13:54.640Z,5.40
2018-04-01T03:16:23.176Z,5.50
2018-04-01T03:18:50.974Z,5.50
2018-04-01T03:21:18.759Z,5.40
2018-04-01T03:23:47.347Z,5.20
2018-04-01T03:26:15.894Z,5.20
2018-04-01T03:28:43.687Z,5.30
2018-04-01T03:31:12.230Z,5.20
2018-04-01T03:33:40.019Z,5.20
2018-04-01T03:36:07.811Z,5.20
2018-04-01T03:38:36.359Z,5.10
2018-04-01T03:41:04.138Z,5.10
2018-04-01T03:43:31.907Z,5.10
2018-04-01T03:45:59.697Z,5.00
2018-04-01T03:48:27.490Z,5.00
2018-04-01T03:50:55.268Z,5.10
2018-04-01T03:53:23.032Z,5.10
2018-04-01T03:55:50.806Z,5.10
2018-04-01T03:58:18.582Z,5.10
2018-04-01T04:00:47.145Z,5.10
2018-04-01T04:03:14.936Z,5.10
2018-04-01T04:05:42.722Z,5.10
2018-04-01T04:08:11.257Z,5.00
2018-04-01T04:10:39.034Z,4.90
2018-04-01T04:13:08.333Z,4.80
2018-04-01T04:15:37.612Z,4.80
2018-04-01T04:18:05.380Z,4.80
2018-04-01T04:20:33.164Z,4.80
2018-04-01T04:23:02.457Z,4.90
2018-04-01T04:25:30.260Z,4.90
2018-04-01T04:27:58.813Z,4.70
2018-04-01T04:30:26.577Z,4.70
2018-04-01T04:32:54.350Z,4.70
2018-04-01T04:35:22.140Z,4.60
2018-04-01T04:37:50.685Z,4.70
2018-04-01T04:40:18.461Z,4.70
2018-04-01T04:42:46.230Z,4.80
2018-04-01T04:45:14.010Z,4.70
2018-04-01T04:47:42.567Z,4.90
2018-04-01T04:50:10.345Z,4.90
2018-04-01T04:52:38.891Z,5.10
2018-04-01T04:55:06.669Z,5.10
2018-04-01T04:57:34.440Z,5.10
2018-04-01T05:00:02.247Z,5.10
2018-04-01T05:02:30.785Z,5.00
2018-04-01T05:04:58.564Z,5.00
2018-04-01T05:07:26.346Z,5.00
2018-04-01T05:09:54.876Z,4.90
2018-04-01T05:12:22.675Z,4.90
2018-04-01T05:14:51.971Z,4.80
2018-04-01T05:17:19.751Z,4.80
2018-04-01T05:19:47.548Z,4.70
2018-04-01T05:22:15.322Z,4.90
2018-04-01T05:24:43.110Z,5.00
2018-04-01T05:27:10.886Z,5.00
2018-04-01T05:29:40.193Z,5.10
2018-04-01T05:32:09.531Z,5.20
2018-04-01T05:34:37.294Z,5.20
2018-04-01T05:37:05.080Z,5.10
2018-04-01T05:39:32.871Z,5.00
2018-04-01T05:42:00.657Z,5.00
2018-04-01T05:44:28.436Z,5.10
2018-04-01T05:46:56.976Z,5.00
2018-04-01T05:49:24.661Z,5.00
2018-04-01T05:51:52.361Z,5.10
2018-04-01T05:54:20.157Z,5.10
2018-04-01T05:56:47.932Z,5.10
2018-04-01T05:59:15.707Z,5.20
2018-04-01T06:01:43.479Z,5.20
2018-04-01T06:04:12.214Z,5.20
2018-04-01T06:06:40.043Z,5.20
2018-04-01T06:09:07.929Z,5.20
2018-04-01T06:11:36.460Z,5.10
2018-04-01T06:14:04.226Z,5.10
2018-04-01T06:16:32.012Z,5.00
2018-04-01T06:19:01.291Z,5.30
2018-04-01T06:21:29.068Z,5.30
2018-04-01T06:23:56.984Z,5.60
2018-04-01T06:26:25.042Z,5.70
2018-04-01T06:28:52.939Z,6.00
2018-04-01T06:31:20.798Z,5.80
2018-04-01T06:33:48.667Z,5.80
2018-04-01T06:36:16.539Z,5.80
2018-04-01T06:38:44.552Z,5.80
2018-04-01T06:41:12.414Z,5.80
2018-04-01T06:43:40.310Z,5.70
2018-04-01T06:46:08.864Z,5.70
2018-04-01T06:48:36.635Z,5.70
2018-04-01T06:51:04.443Z,5.70
2018-04-01T06:53:32.231Z,5.80
2018-04-01T06:55:59.997Z,5.80
2018-04-01T06:58:27.765Z,5.70
2018-04-01T07:00:55.552Z,5.90
2018-04-01T07:03:23.330Z,5.80
2018-04-01T07:05:51.936Z,6.00
2018-04-01T07:08:20.384Z,5.90
2018-04-01T07:10:48.159Z,5.90
2018-04-01T07:13:15.938Z,6.00
2018-04-01T07:15:44.475Z,6.00
2018-04-01T07:18:12.298Z,6.00
2018-04-01T07:20:40.120Z,6.10
2018-04-01T07:23:07.902Z,6.10
2018-04-01T07:25:36.457Z,6.10
2018-04-01T07:28:04.257Z,6.00
2018-04-01T07:30:32.817Z,6.20
2018-04-01T07:33:00.593Z,6.10
2018-04-01T07:35:29.125Z,6.40
2018-04-01T07:37:56.894Z,6.40
2018-04-01T07:40:24.660Z,6.50
2018-04-01T07:42:52.450Z,6.70
2018-04-01T07:45:20.218Z,6.80
2018-04-01T07:47:47.980Z,6.70
2018-04-01T07:50:15.755Z,6.60
2018-04-01T07:52:43.532Z,6.70
2018-04-01T07:55:11.320Z,6.90
2018-04-01T07:57:39.099Z,7.30
2018-04-01T08:00:06.913Z,7.10
2018-04-01T08:02:34.677Z,7.20
2018-04-01T08:05:02.447Z,7.60
2018-04-01T08:07:30.391Z,7.90
2018-04-01T08:09:58.181Z,7.60
2018-04-01T08:12:26.729Z,7.50
2018-04-01T08:14:54.541Z,7.40
2018-04-01T08:17:22.339Z,7.50
2018-04-01T08:19:50.118Z,7.60
2018-04-01T08:22:17.896Z,7.70
2018-04-01T08:24:45.663Z,7.60
2018-04-01T08:27:13.442Z,7.30
2018-04-01T08:29:41.206Z,7.10
2018-04-01T08:32:08.983Z,6.90
2018-04-01T08:34:36.748Z,6.70
2018-04-01T08:37:04.526Z,6.50
2018-04-01T08:39:33.064Z,6.20
2018-04-01T08:42:00.829Z,6.20
2018-04-01T08:44:28.594Z,6.20
2018-04-01T08:46:56.374Z,6.10
2018-04-01T08:49:24.913Z,6.00
2018-04-01T08:51:52.681Z,5.90
2018-04-01T08:54:20.452Z,6.10
2018-04-01T08:56:48.218Z,6.30
2018-04-01T08:59:15.992Z,6.60
2018-04-01T09:01:43.778Z,6.80
2018-04-01T09:04:13.073Z,7.10
2018-04-01T09:06:41.057Z,7.10
2018-04-01T09:09:08.825Z,7.40
2018-04-01T09:11:36.641Z,7.80
2018-04-01T09:14:04.421Z,8.70
2018-04-01T09:16:32.194Z,8.70
2018-04-01T09:18:59.968Z,8.40
2018-04-01T09:21:27.757Z,7.70
2018-04-01T09:23:56.289Z,8.40
2018-04-01T09:26:24.070Z,8.40
2018-04-01T09:28:51.852Z,8.90
2018-04-01T09:31:19.645Z,9.10
2018-04-01T09:33:48.181Z,8.70
2018-04-01T09:36:15.973Z,8.70
2018-04-01T09:38:43.739Z,9.30
2018-04-01T09:41:13.021Z,9.50
2018-04-01T09:43:40.790Z,9.40
2018-04-01T09:46:08.560Z,9.70
2018-04-01T09:48:36.349Z,9.80
2018-04-01T09:51:04.898Z,9.10
2018-04-01T09:53:32.664Z,9.00
2018-04-01T09:56:00.445Z,8.60
2018-04-01T09:58:28.255Z,8.60
2018-04-01T10:01:00.406Z,8.20
2018-04-01T10:03:28.664Z,7.40
2018-04-01T10:05:57.672Z,6.80
2018-04-01T10:08:25.945Z,6.70
2018-04-01T10:10:54.987Z,6.60
2018-04-01T10:13:23.241Z,6.60
2018-04-01T10:15:51.510Z,6.50
2018-04-01T10:18:19.774Z,6.30
2018-04-01T10:20:48.028Z,6.20
2018-04-01T10:23:17.052Z,6.10
2018-04-01T10:25:45.329Z,6.00
2018-04-01T10:28:13.582Z,5.90
2018-04-01T10:30:42.617Z,5.90
2018-04-01T10:33:10.875Z,5.90
2018-04-01T10:35:39.132Z,6.10
2018-04-01T10:38:08.765Z,6.40
2018-04-01T10:40:37.039Z,6.30
2018-04-01T10:43:06.048Z,6.30
2018-04-01T10:45:34.318Z,6.30
2018-04-01T10:48:02.610Z,6.30
2018-04-01T10:50:30.816Z,6.50
2018-04-01T10:52:59.076Z,7.00
2018-04-01T10:55:26.870Z,7.70
2018-04-01T10:57:54.635Z,7.60
2018-04-01T11:00:23.164Z,7.40
2018-04-01T11:02:50.932Z,7.30
2018-04-01T11:05:18.698Z,7.20
2018-04-01T11:07:46.477Z,7.00
2018-04-01T11:10:14.237Z,7.10
2018-04-01T11:12:42.009Z,7.40
2018-04-01T11:15:09.790Z,7.50
2018-04-01T11:17:37.551Z,7.30
2018-04-01T11:20:06.124Z,7.00
2018-04-01T11:22:33.894Z,7.00
2018-04-01T11:25:01.660Z,7.10
2018-04-01T11:27:29.606Z,7.20
2018-04-01T11:29:57.855Z,7.20
2018-04-01T11:32:25.625Z,7.10
2018-04-01T11:34:53.378Z,7.10
2018-04-01T11:37:21.178Z,7.00
2018-04-01T11:39:48.962Z,6.90
2018-04-01T11:42:16.751Z,7.00
2018-04-01T11:44:45.289Z,7.00
2018-04-01T11:47:13.054Z,7.00
2018-04-01T11:49:40.819Z,6.90
2018-04-01T11:52:08.609Z,6.80
2018-04-01T11:54:36.382Z,6.90
2018-04-01T11:57:04.150Z,6.70
2018-04-01T11:59:32.683Z,6.80
2018-04-01T12:02:00.461Z,6.80
2018-04-01T12:04:28.243Z,6.80
2018-04-01T12:06:56.012Z,6.80
2018-04-01T12:09:23.770Z,6.90
2018-04-01T12:11:51.610Z,7.20
2018-04-01T12:14:19.398Z,7.30
2018-04-01T12:16:47.140Z,7.30
2018-04-01T12:19:14.932Z,7.10
2018-04-01T12:21:42.749Z,7.10
2018-04-01T12:24:10.508Z,7.40
2018-04-01T12:26:38.290Z,7.40
2018-04-01T12:29:06.076Z,7.40
2018-04-01T12:31:33.854Z,7.50
2018-04-01T12:34:01.645Z,7.20
2018-04-01T12:36:30.206Z,7.20
2018-04-01T12:38:59.280Z,7.00
2018-04-01T12:41:27.062Z,7.00
2018-04-01T12:43:55.612Z,6.80
2018-04-01T12:46:23.362Z,6.80
2018-04-01T12:48:51.128Z,6.80
2018-04-01T12:51:18.903Z,6.90
2018-04-01T12:53:46.668Z,6.80
2018-04-01T12:56:14.474Z,6.80
2018-04-01T12:58:42.233Z,7.00
2018-04-01T13:01:09.998Z,7.20
2018-04-01T13:03:37.769Z,7.30
2018-04-01T13:06:05.572Z,7.50
2018-04-01T13:08:33.335Z,7.50
2018-04-01T13:11:01.106Z,7.40
2018-04-01T13:13:28.876Z,7.40
2018-04-01T13:15:56.646Z,7.50
2018-04-01T13:18:24.408Z,8.00
2018-04-01T13:20:52.195Z,8.10
2018-04-01T13:23:19.975Z,8.30
2018-04-01T13:25:47.742Z,8.40
2018-04-01T13:28:15.499Z,8.50
2018-04-01T13:30:43.279Z,8.00
2018-04-01T13:33:11.058Z,7.80
2018-04-01T13:35:38.820Z,7.80
2018-04-01T13:38:07.393Z,7.90
2018-04-01T13:40:35.168Z,7.90
2018-04-01T13:43:03.737Z,8.00
2018-04-01T13:45:31.498Z,8.00
2018-04-01T13:48:00.055Z,7.80
2018-04-01T13:50:27.877Z,7.70
2018-04-01T13:52:55.633Z,7.80
2018-04-01T13:55:24.175Z,7.50
2018-04-01T13:57:51.950Z,7.50
2018-04-01T14:00:19.719Z,7.40
2018-04-01T14:02:47.499Z,7.50
2018-04-01T14:05:16.064Z,7.90
2018-04-01T14:07:45.344Z,8.10
2018-04-01T14:10:13.880Z,8.10
2018-04-01T14:12:41.699Z,8.10
2018-04-01T14:15:09.476Z,8.30
2018-04-01T14:17:37.262Z,8.60
2018-04-01T14:20:05.826Z,8.70
2018-04-01T14:22:33.608Z,8.70
2018-04-01T14:25:02.152Z,8.40
2018-04-01T14:27:29.959Z,8.40
2018-04-01T14:29:58.587Z,8.40
2018-04-01T14:32:26.370Z,8.40
2018-04-01T14:34:54.184Z,8.30
2018-04-01T14:37:21.980Z,8.70
2018-04-01T14:39:49.754Z,8.60
2018-04-01T14:42:17.521Z,8.20
2018-04-01T14:44:45.296Z,8.40
2018-04-01T14:47:13.061Z,8.40
2018-04-01T14:49:40.847Z,8.50
2018-04-01T14:52:09.377Z,8.10
2018-04-01T14:54:37.150Z,8.10
2018-04-01T14:57:04.905Z,8.10
2018-04-01T14:59:32.664Z,8.00
2018-04-01T15:02:00.421Z,7.90
2018-04-01T15:04:28.246Z,8.10
2018-04-01T15:06:56.058Z,7.80
2018-04-01T15:09:23.844Z,8.30
2018-04-01T15:11:51.614Z,8.00
2018-04-01T15:14:19.419Z,7.80
2018-04-01T15:16:47.950Z,7.90
2018-04-01T15:19:15.724Z,7.90
2018-04-01T15:21:43.489Z,8.20
2018-04-01T15:24:11.257Z,8.30
2018-04-01T15:26:39.041Z,8.20
2018-04-01T15:29:07.791Z,8.20
2018-04-01T15:31:35.570Z,7.90
2018-04-01T15:34:03.349Z,7.80
2018-04-01T15:36:32.354Z,7.90
2018-04-01T15:39:00.120Z,7.80
2018-04-01T15:41:28.649Z,7.80
2018-04-01T15:43:56.437Z,7.80
2018-04-01T15:46:24.200Z,8.00
2018-04-01T15:48:51.983Z,7.80
2018-04-01T15:51:19.754Z,7.80
2018-04-01T15:53:47.511Z,7.80
2018-04-01T15:56:15.294Z,7.80
2018-04-01T15:58:43.833Z,8.00
2018-04-01T16:01:11.602Z,7.90
2018-04-01T16:03:39.379Z,8.20
2018-04-01T16:06:07.182Z,8.10
2018-04-01T16:08:35.790Z,7.90
2018-04-01T16:11:03.496Z,7.90
2018-04-01T16:13:31.291Z,7.80
2018-04-01T16:15:59.855Z,7.60
2018-04-01T16:18:27.714Z,7.60
2018-04-01T16:20:55.487Z,7.80
2018-04-01T16:23:23.266Z,7.90
2018-04-01T16:25:51.063Z,8.00
2018-04-01T16:28:18.833Z,8.20
2018-04-01T16:30:46.594Z,8.20
2018-04-01T16:33:14.380Z,8.30
2018-04-01T16:35:42.158Z,8.10
2018-04-01T16:38:09.983Z,8.00
2018-04-01T16:40:39.115Z,7.60
2018-04-01T16:43:06.997Z,7.60
2018-04-01T16:45:34.757Z,7.60
2018-04-01T16:48:02.518Z,7.50
2018-04-01T16:50:30.278Z,7.50
2018-04-01T16:52:58.086Z,7.40
2018-04-01T16:55:25.846Z,7.40
2018-04-01T16:57:53.630Z,7.40
2018-04-01T17:00:21.412Z,7.40
2018-04-01T17:02:49.174Z,7.40
2018-04-01T17:05:16.947Z,7.30
2018-04-01T17:07:44.727Z,7.30
2018-04-01T17:10:12.502Z,7.30
2018-04-01T17:12:41.066Z,7.00
2018-04-01T17:15:08.858Z,7.00
2018-04-01T17:17:37.394Z,7.00
2018-04-01T17:20:05.195Z,7.00
2018-04-01T17:22:33.003Z,7.00
2018-04-01T17:25:00.780Z,7.00
2018-04-01T17:27:28.548Z,6.90
2018-04-01T17:29:56.335Z,6.90
2018-04-01T17:32:24.142Z,6.90
2018-04-01T17:34:51.900Z,6.80
2018-04-01T17:37:20.443Z,6.70
2018-04-01T17:39:48.215Z,6.70
2018-04-01T17:42:15.999Z,6.70
2018-04-01T17:44:43.766Z,6.70
2018-04-01T17:47:11.535Z,6.70
2018-04-01T17:49:40.074Z,6.70
2018-04-01T17:52:07.847Z,6.60
2018-04-01T17:54:35.627Z,6.60
2018-04-01T17:57:03.408Z,6.60
2018-04-01T17:59:31.173Z,6.60
2018-04-01T18:01:59.710Z,6.60
2018-04-01T18:04:27.480Z,6.50
2018-04-01T18:06:55.249Z,6.50
2018-04-01T18:09:23.035Z,6.50
2018-04-01T18:11:50.798Z,6.50
2018-04-01T18:14:18.566Z,6.50
2018-04-01T18:16:46.328Z,6.50
2018-04-01T18:19:14.098Z,6.50
2018-04-01T18:21:44.310Z,6.50
2018-04-01T18:24:12.098Z,6.50
2018-04-01T18:26:40.640Z,6.40
2018-04-01T18:29:08.390Z,6.40
2018-04-01T18:31:36.165Z,6.30
2018-04-01T18:34:03.958Z,6.30
2018-04-01T18:36:32.496Z,6.10
2018-04-01T18:39:00.272Z,6.00
2018-04-01T18:41:28.044Z,5.90
2018-04-01T18:43:55.805Z,5.80
2018-04-01T18:46:23.595Z,5.60
2018-04-01T18:48:51.397Z,5.60
2018-04-01T18:51:19.352Z,5.60
2018-04-01T18:53:48.782Z,5.50
2018-04-01T18:56:16.584Z,5.50
2018-04-01T18:58:44.385Z,5.50
2018-04-01T19:01:12.949Z,5.50
2018-04-01T19:03:40.713Z,5.60
2018-04-01T19:06:08.500Z,5.50
2018-04-01T19:08:37.074Z,5.40
2018-04-01T19:11:04.853Z,5.40
2018-04-01T19:13:32.644Z,5.50
2018-04-01T19:16:00.927Z,5.50
2018-04-01T19:18:29.195Z,5.50
2018-04-01T19:20:57.465Z,5.50
2018-04-01T19:23:25.724Z,5.40
2018-04-01T19:25:54.764Z,5.40
2018-04-01T19:28:23.041Z,5.40
2018-04-01T19:30:51.307Z,5.30
2018-04-01T19:33:19.692Z,5.30
2018-04-01T19:35:47.962Z,5.40
2018-04-01T19:38:16.253Z,5.40
2018-04-01T19:40:44.553Z,5.50
2018-04-01T19:43:12.824Z,5.30
2018-04-01T19:45:42.630Z,5.30
2018-04-01T19:48:11.554Z,5.40
2018-04-01T19:50:39.738Z,5.30
2018-04-01T19:53:08.022Z,5.40
2018-04-01T19:55:36.999Z,5.40
2018-04-01T19:58:06.016Z,5.30
2018-04-01T20:00:34.328Z,5.30
2018-04-01T20:03:02.600Z,5.30
2018-04-01T20:05:30.861Z,5.30
2018-04-01T20:07:59.155Z,5.20
2018-04-01T20:10:27.425Z,5.20
2018-04-01T20:12:55.696Z,5.10
2018-04-01T20:15:23.953Z,5.20
2018-04-01T20:17:52.210Z,5.20
2018-04-01T20:20:20.474Z,5.10
2018-04-01T20:22:49.496Z,5.20
2018-04-01T20:25:17.763Z,5.20
2018-04-01T20:27:46.030Z,5.30
2018-04-01T20:30:14.654Z,5.20
2018-04-01T20:32:43.030Z,5.20
2018-04-01T20:35:11.282Z,5.20
2018-04-01T20:37:39.547Z,5.40
2018-04-01T20:40:07.849Z,5.30
2018-04-01T20:42:36.108Z,5.30
2018-04-01T20:45:04.413Z,5.30
2018-04-01T20:47:32.676Z,5.20
2018-04-01T20:50:00.964Z,5.30
2018-04-01T20:52:29.270Z,5.30
2018-04-01T20:54:57.539Z,5.20
2018-04-01T20:57:25.799Z,5.30
2018-04-01T20:59:54.068Z,5.20
2018-04-01T21:02:22.443Z,5.30
2018-04-01T21:04:50.710Z,5.30
2018-04-01T21:07:18.976Z,5.30
2018-04-01T21:09:47.245Z,5.30
2018-04-01T21:12:15.507Z,5.30
2018-04-01T21:14:44.654Z,5.30
2018-04-01T21:17:12.930Z,5.30
2018-04-01T21:19:41.185Z,5.40
2018-04-01T21:22:09.455Z,5.40
2018-04-01T21:24:37.720Z,5.40
2018-04-01T21:27:05.983Z,5.40
2018-04-01T21:29:35.129Z,5.40
2018-04-01T21:32:03.567Z,5.40
2018-04-01T21:34:31.863Z,5.40
2018-04-01T21:37:00.211Z,5.40
2018-04-01T21:39:29.445Z,5.30
2018-04-01T21:41:57.739Z,5.30
2018-04-01T21:44:26.211Z,5.40
2018-04-01T21:46:54.490Z,5.40
2018-04-01T21:49:22.860Z,5.30
2018-04-01T21:51:51.175Z,5.40
2018-04-01T21:54:21.063Z,5.20
2018-04-01T21:56:49.352Z,5.30
2018-04-01T21:59:17.646Z,5.30
2018-04-01T22:01:45.924Z,5.30
2018-04-01T22:04:14.220Z,5.40
2018-04-01T22:06:43.304Z,5.30
2018-04-01T22:09:12.362Z,5.30
2018-04-01T22:11:40.645Z,5.30
2018-04-01T22:14:08.925Z,5.30
2018-04-01T22:16:37.209Z,5.30
2018-04-01T22:19:05.487Z,5.30
2018-04-01T22:21:34.566Z,5.20
2018-04-01T22:24:02.843Z,5.20
2018-04-01T22:26:31.122Z,5.20
2018-04-01T22:28:59.376Z,5.30
2018-04-01T22:31:27.669Z,5.20
2018-04-01T22:33:55.947Z,5.20
2018-04-01T22:36:24.223Z,5.20
2018-04-01T22:38:52.488Z,5.20
2018-04-01T22:41:20.799Z,5.20
2018-04-01T22:43:49.057Z,5.10
2018-04-01T22:46:17.443Z,5.20
2018-04-01T22:48:46.482Z,5.20
2018-04-01T22:51:14.745Z,5.10
2018-04-01T22:53:43.794Z,5.20
2018-04-01T22:56:12.088Z,5.10
2018-04-01T22:58:41.028Z,5.20
2018-04-01T23:01:09.314Z,5.20
2018-04-01T23:03:37.598Z,5.20
2018-04-01T23:06:05.877Z,5.10
2018-04-01T23:08:34.714Z,5.10
2018-04-01T23:11:03.148Z,5.20
2018-04-01T23:13:31.511Z,5.20
2018-04-01T23:15:59.901Z,5.10
2018-04-01T23:18:28.186Z,5.10
2018-04-01T23:20:56.472Z,5.10
2018-04-01T23:23:24.765Z,5.10
2018-04-01T23:25:53.044Z,5.10
2018-04-01T23:28:21.360Z,5.10
2018-04-01T23:30:50.436Z,5.10
2018-04-01T23:33:19.516Z,4.90
2018-04-01T23:35:47.836Z,4.90
2018-04-01T23:38:16.125Z,4.80
2018-04-01T23:40:44.526Z,4.80
2018-04-01T23:43:14.355Z,4.90
2018-04-01T23:45:43.439Z,4.90
2018-04-01T23:48:11.820Z,4.90
2018-04-01T23:50:40.873Z,4.80
2018-04-01T23:53:09.278Z,4.80
2018-04-01T23:55:37.601Z,4.70
2018-04-01T23:58:06.782Z,4.70
